createdAt,value
2022-08-16T00:02:30.536Z,100675.81
2022-08-16T00:04:59.656Z,100673.94
2022-08-16T00:07:26.757Z,100672.03
2022-08-16T00:09:56.189Z,100679.16
2022-08-16T00:12:24.097Z,100678.47
2022-08-16T00:14:50.904Z,100677.31
2022-08-16T00:17:23.429Z,100686.00
2022-08-16T00:19:53.708Z,100685.63
2022-08-16T00:22:25.103Z,100681.41
2022-08-16T00:24:54.413Z,100687.84
2022-08-16T00:27:21.876Z,100688.31
2022-08-16T00:29:48.500Z,100690.81
2022-08-16T00:32:32.692Z,100692.53
2022-08-16T00:35:00.454Z,100688.31
2022-08-16T00:37:58.895Z,100693.88
2022-08-16T00:40:34.881Z,100694.00
2022-08-16T00:43:12.051Z,100689.78
2022-08-16T00:46:22.422Z,100699.28
2022-08-16T00:48:56.914Z,100696.59
2022-08-16T00:51:25.077Z,100702.53
2022-08-16T00:53:58.197Z,100702.59
2022-08-16T00:56:58.573Z,100701.22
2022-08-16T00:59:20.979Z,100700.91
2022-08-16T01:01:51.369Z,100697.38
2022-08-16T01:04:29.013Z,100703.31
2022-08-16T01:07:02.036Z,100699.50
2022-08-16T01:09:33.204Z,100693.25
2022-08-16T01:12:00.950Z,100698.47
2022-08-16T01:14:34.147Z,100700.94
2022-08-16T01:17:03.160Z,100697.03
2022-08-16T01:19:34.741Z,100698.66
2022-08-16T01:22:49.560Z,100699.53
2022-08-16T01:25:02.956Z,100692.19
2022-08-16T01:27:35.212Z,100695.41
2022-08-16T01:30:20.547Z,100697.38
2022-08-16T01:33:01.370Z,100714.72
2022-08-16T01:35:40.570Z,100703.91
2022-08-16T01:38:34.430Z,100698.88
2022-08-16T01:41:02.650Z,100702.44
2022-08-16T01:43:31.539Z,100694.19
2022-08-16T01:46:37.366Z,100700.91
2022-08-16T01:48:48.374Z,100700.91
2022-08-16T01:51:18.043Z,100694.63
2022-08-16T01:53:54.608Z,100702.84
2022-08-16T01:56:25.200Z,100699.34
2022-08-16T01:58:55.199Z,100692.28
2022-08-16T02:01:22.953Z,100690.78
2022-08-16T02:03:52.440Z,100691.63
2022-08-16T02:06:33.958Z,100693.19
2022-08-16T02:09:05.295Z,100692.09
2022-08-16T02:11:47.682Z,100692.91
2022-08-16T02:14:18.414Z,100696.16
2022-08-16T02:16:48.264Z,100694.22
2022-08-16T02:19:16.196Z,100701.63
2022-08-16T02:22:08.375Z,100695.84
2022-08-16T02:24:34.327Z,100695.47
2022-08-16T02:27:08.528Z,100694.72
2022-08-16T02:29:35.011Z,100698.25
2022-08-16T02:32:50.421Z,100697.88
2022-08-16T02:34:50.298Z,100701.44
2022-08-16T02:37:20.951Z,100702.66
2022-08-16T02:39:53.733Z,100700.00
2022-08-16T02:42:21.041Z,100701.22
2022-08-16T02:44:47.465Z,100703.19
2022-08-16T02:47:25.427Z,100696.97
2022-08-16T02:49:59.320Z,100702.16
2022-08-16T02:52:39.254Z,100700.25
2022-08-16T02:55:11.722Z,100697.84
2022-08-16T02:57:53.713Z,100698.66
2022-08-16T03:00:32.110Z,100694.72
2022-08-16T03:03:02.520Z,100695.94
2022-08-16T03:05:31.575Z,100695.94
2022-08-16T03:07:58.604Z,100697.44
2022-08-16T03:10:33.530Z,100688.47
2022-08-16T03:13:00.602Z,100693.16
2022-08-16T03:15:27.856Z,100699.06
2022-08-16T03:17:55.024Z,100694.75
2022-08-16T03:20:32.352Z,100700.72
2022-08-16T03:23:01.841Z,100691.41
2022-08-16T03:25:41.104Z,100689.41
2022-08-16T03:28:11.553Z,100683.56
2022-08-16T03:30:38.255Z,100682.81
2022-08-16T03:33:05.425Z,100685.97
2022-08-16T03:35:36.159Z,100687.94
2022-08-16T03:38:34.445Z,100677.03
2022-08-16T03:40:53.877Z,100682.53
2022-08-16T03:43:21.683Z,100684.88
2022-08-16T03:45:48.897Z,100688.81
2022-08-16T03:48:19.741Z,100690.00
2022-08-16T03:51:00.067Z,100691.53
2022-08-16T03:53:37.598Z,100693.50
2022-08-16T03:56:07.318Z,100693.56
2022-08-16T03:58:34.913Z,100692.06
2022-08-16T04:01:04.724Z,100696.78
2022-08-16T04:03:32.248Z,100704.19
2022-08-16T04:05:59.493Z,100710.06
2022-08-16T04:08:31.348Z,100716.44
2022-08-16T04:11:01.526Z,100716.47
2022-08-16T04:14:01.681Z,100716.53
2022-08-16T04:16:27.385Z,100718.50
2022-08-16T04:19:02.423Z,100721.25
2022-08-16T04:21:35.860Z,100717.81
2022-08-16T04:24:12.842Z,100719.00
2022-08-16T04:26:46.246Z,100727.94
2022-08-16T04:29:17.200Z,100725.22
2022-08-16T04:31:56.242Z,100725.59
2022-08-16T04:34:26.695Z,100725.97
2022-08-16T04:36:53.842Z,100733.38
2022-08-16T04:39:23.903Z,100727.53
2022-08-16T04:41:56.668Z,100733.41
2022-08-16T04:44:32.429Z,100740.81
2022-08-16T04:47:21.102Z,100744.69
2022-08-16T04:49:50.575Z,100749.81
2022-08-16T04:52:32.759Z,100750.28
2022-08-16T04:55:00.928Z,100753.41
2022-08-16T04:57:30.380Z,100758.44
2022-08-16T04:59:57.129Z,100755.63
2022-08-16T05:02:42.252Z,100756.75
2022-08-16T05:05:17.031Z,100752.41
2022-08-16T05:07:58.560Z,100759.78
2022-08-16T05:10:29.611Z,100750.88
2022-08-16T05:12:57.550Z,100757.13
2022-08-16T05:15:24.565Z,100759.09
2022-08-16T05:17:58.845Z,100758.31
2022-08-16T05:20:45.038Z,100761.78
2022-08-16T05:23:15.143Z,100757.44
2022-08-16T05:25:48.429Z,100756.56
2022-08-16T05:28:15.292Z,100756.88
2022-08-16T05:30:41.839Z,100759.91
2022-08-16T05:33:16.493Z,100761.22
2022-08-16T05:35:43.812Z,100762.25
2022-08-16T05:38:32.464Z,100755.38
2022-08-16T05:41:00.878Z,100758.34
2022-08-16T05:43:32.152Z,100760.59
2022-08-16T05:46:28.711Z,100765.97
2022-08-16T05:49:03.741Z,100768.13
2022-08-16T05:51:37.609Z,100762.59
2022-08-16T05:54:07.663Z,100765.59
2022-08-16T05:56:37.388Z,100768.16
2022-08-16T05:59:06.427Z,100766.66
2022-08-16T06:01:38.135Z,100777.28
2022-08-16T06:04:13.587Z,100777.28
2022-08-16T06:06:56.224Z,100770.81
2022-08-16T06:09:23.921Z,100783.03
2022-08-16T06:11:50.951Z,100778.44
2022-08-16T06:14:18.145Z,100775.03
2022-08-16T06:16:50.849Z,100782.94
2022-08-16T06:19:17.744Z,100784.22
2022-08-16T06:21:46.109Z,100772.66
2022-08-16T06:24:54.541Z,100773.34
2022-08-16T06:27:08.424Z,100788.63
2022-08-16T06:29:34.856Z,100790.81
2022-08-16T06:32:01.577Z,100778.88
2022-08-16T06:34:53.242Z,100781.31
2022-08-16T06:37:17.421Z,100780.44
2022-08-16T06:39:49.176Z,100786.56
2022-08-16T06:42:18.105Z,100778.75
2022-08-16T06:44:45.771Z,100780.63
2022-08-16T06:47:16.787Z,100770.03
2022-08-16T06:49:44.024Z,100778.38
2022-08-16T06:52:58.071Z,100778.28
2022-08-16T06:55:13.009Z,100778.53
2022-08-16T06:57:40.742Z,100778.03
2022-08-16T07:00:24.779Z,100786.09
2022-08-16T07:02:53.924Z,100782.34
2022-08-16T07:05:26.997Z,100785.41
2022-08-16T07:08:06.119Z,100786.03
2022-08-16T07:10:32.570Z,100787.91
2022-08-16T07:13:04.087Z,100785.47
2022-08-16T07:15:38.124Z,100790.78
2022-08-16T07:18:24.467Z,100792.19
2022-08-16T07:20:53.883Z,100794.84
2022-08-16T07:23:37.350Z,100799.16
2022-08-16T07:26:09.840Z,100800.47
2022-08-16T07:28:37.552Z,100805.03
2022-08-16T07:31:05.034Z,100804.19
2022-08-16T07:33:53.640Z,100793.09
2022-08-16T07:36:22.608Z,100789.84
2022-08-16T07:38:49.936Z,100798.72
2022-08-16T07:41:16.897Z,100809.56
2022-08-16T07:43:43.865Z,100798.94
2022-08-16T07:46:38.993Z,100799.97
2022-08-16T07:49:02.630Z,100811.09
2022-08-16T07:51:34.729Z,100816.28
2022-08-16T07:54:09.532Z,100817.56
2022-08-16T07:56:37.660Z,100813.19
2022-08-16T07:59:05.727Z,100818.56
2022-08-16T08:01:33.457Z,100823.75
2022-08-16T08:04:01.269Z,100824.44
2022-08-16T08:06:32.217Z,100823.22
2022-08-16T08:09:00.188Z,100825.38
2022-08-16T08:11:29.569Z,100830.84
2022-08-16T08:14:03.508Z,100833.69
2022-08-16T08:16:32.733Z,100827.84
2022-08-16T08:19:02.664Z,100823.91
2022-08-16T08:21:58.385Z,100829.06
2022-08-16T08:24:16.899Z,100832.16
2022-08-16T08:26:43.545Z,100828.59
2022-08-16T08:29:12.018Z,100828.81
2022-08-16T08:31:42.461Z,100833.72
2022-08-16T08:34:08.985Z,100829.09
2022-08-16T08:36:39.398Z,100835.75
2022-08-16T08:39:13.223Z,100844.38
2022-08-16T08:41:41.460Z,100851.25
2022-08-16T08:44:28.866Z,100851.97
2022-08-16T08:47:00.014Z,100849.81
2022-08-16T08:49:46.501Z,100856.84
2022-08-16T08:52:35.194Z,100860.47
2022-08-16T08:55:10.362Z,100847.44
2022-08-16T08:57:44.774Z,100853.22
2022-08-16T09:00:14.310Z,100848.56
2022-08-16T09:02:51.920Z,100854.75
2022-08-16T09:05:21.051Z,100847.44
2022-08-16T09:08:00.493Z,100841.31
2022-08-16T09:10:29.835Z,100839.81
2022-08-16T09:12:57.167Z,100855.09
2022-08-16T09:15:24.123Z,100850.72
2022-08-16T09:17:54.700Z,100852.50
2022-08-16T09:20:23.696Z,100852.38
2022-08-16T09:22:52.576Z,100867.03
2022-08-16T09:25:33.526Z,100869.34
2022-08-16T09:28:02.399Z,100871.41
2022-08-16T09:30:43.309Z,100868.91
2022-08-16T09:33:12.441Z,100864.78
2022-08-16T09:35:42.667Z,100864.03
2022-08-16T09:38:12.182Z,100866.59
2022-08-16T09:40:44.108Z,100864.25
2022-08-16T09:43:37.788Z,100871.44
2022-08-16T09:46:03.245Z,100868.59
2022-08-16T09:48:52.973Z,100881.31
2022-08-16T09:51:26.383Z,100874.94
2022-08-16T09:54:03.730Z,100873.69
2022-08-16T09:56:33.116Z,100872.34
2022-08-16T09:59:03.959Z,100883.59
2022-08-16T10:01:36.385Z,100883.16
2022-08-16T10:04:04.179Z,100889.56
2022-08-16T10:06:33.454Z,100885.72
2022-08-16T10:09:06.319Z,100884.44
2022-08-16T10:11:53.297Z,100881.41
2022-08-16T10:14:24.481Z,100884.31
2022-08-16T10:16:59.929Z,100887.13
2022-08-16T10:19:29.164Z,100882.16
2022-08-16T10:21:59.075Z,100883.16
2022-08-16T10:24:28.302Z,100883.13
2022-08-16T10:27:17.978Z,100874.94
2022-08-16T10:30:00.406Z,100878.03
2022-08-16T10:32:30.583Z,100880.09
2022-08-16T10:35:00.234Z,100872.97
2022-08-16T10:37:41.893Z,100872.97
2022-08-16T10:40:28.745Z,100874.50
2022-08-16T10:42:59.955Z,100878.59
2022-08-16T10:45:36.395Z,100881.06
2022-08-16T10:48:04.059Z,100888.91
2022-08-16T10:50:32.724Z,100888.00
2022-08-16T10:53:00.162Z,100884.38
2022-08-16T10:55:40.627Z,100890.56
2022-08-16T10:58:13.509Z,100894.88
2022-08-16T11:00:43.850Z,100885.97
2022-08-16T11:06:00.303Z,100902.75
2022-08-16T11:08:31.297Z,100901.22
2022-08-16T11:11:05.397Z,100904.72
2022-08-16T11:16:26.503Z,100914.63
2022-08-16T11:19:06.427Z,100909.28
2022-08-16T11:24:39.431Z,100922.03
2022-08-16T11:27:32.804Z,100917.41
2022-08-16T11:29:56.747Z,100922.06
2022-08-16T11:32:32.479Z,100924.47
2022-08-16T11:35:13.750Z,100930.44
2022-08-16T11:43:32.107Z,100929.09
2022-08-16T11:46:43.740Z,100931.13
2022-08-16T11:48:51.697Z,100927.22
2022-08-16T11:51:20.574Z,100928.00
2022-08-16T11:53:50.464Z,100938.47
2022-08-16T11:56:37.577Z,100933.19
2022-08-16T11:59:08.650Z,100931.06
2022-08-16T12:01:44.615Z,100930.91
2022-08-16T12:04:23.267Z,100939.31
2022-08-16T12:06:53.657Z,100932.16
2022-08-16T12:09:21.927Z,100931.94
2022-08-16T12:11:52.691Z,100933.69
2022-08-16T12:14:22.785Z,100936.41
2022-08-16T12:16:55.816Z,100935.25
2022-08-16T12:19:33.688Z,100935.34
2022-08-16T12:22:00.802Z,100924.63
2022-08-16T12:24:32.484Z,100928.59
2022-08-16T12:27:00.003Z,100927.50
2022-08-16T12:29:29.425Z,100935.91
2022-08-16T12:32:00.636Z,100936.38
2022-08-16T12:34:29.574Z,100937.38
2022-08-16T12:36:56.448Z,100943.22
2022-08-16T12:39:23.801Z,100943.31
2022-08-16T12:41:56.355Z,100946.13
2022-08-16T12:44:26.817Z,100955.78
2022-08-16T12:47:16.383Z,100945.25
2022-08-16T12:49:44.480Z,100957.66
2022-08-16T12:52:32.755Z,100957.91
2022-08-16T12:54:58.681Z,100965.00
2022-08-16T12:57:25.536Z,100965.19
2022-08-16T13:00:12.964Z,100974.38
2022-08-16T13:02:54.015Z,100976.84
2022-08-16T13:05:20.429Z,100971.03
2022-08-16T13:07:51.763Z,100973.84
2022-08-16T13:10:38.024Z,100971.44
2022-08-16T13:13:09.249Z,100978.06
2022-08-16T13:15:55.699Z,100970.06
2022-08-16T13:18:33.614Z,100968.44
2022-08-16T13:21:05.876Z,100975.22
2022-08-16T13:23:33.521Z,100965.78
2022-08-16T13:26:02.427Z,100976.34
2022-08-16T13:28:28.973Z,100959.09
2022-08-16T13:30:57.269Z,100956.31
2022-08-16T13:33:30.778Z,100962.13
2022-08-16T13:36:01.159Z,100946.75
2022-08-16T13:38:32.689Z,100948.34
2022-08-16T13:41:08.241Z,100959.59
2022-08-16T13:43:36.561Z,100947.94
2022-08-16T13:46:04.733Z,100954.66
2022-08-16T13:48:37.037Z,100949.97
2022-08-16T13:51:16.998Z,100947.72
2022-08-16T13:53:59.791Z,100946.19
2022-08-16T13:56:37.591Z,100948.56
2022-08-16T13:59:20.177Z,100949.94
2022-08-16T14:01:54.616Z,100945.56
2022-08-16T14:04:26.408Z,100949.94
2022-08-16T14:06:53.868Z,100951.91
2022-08-16T14:09:21.303Z,100953.97
2022-08-16T14:11:47.864Z,100959.44
2022-08-16T14:14:20.059Z,100966.31
2022-08-16T14:16:55.061Z,100966.06
2022-08-16T14:19:22.536Z,100961.06
2022-08-16T14:21:56.615Z,100963.38
2022-08-16T14:24:30.019Z,100967.44
2022-08-16T14:26:57.860Z,100962.88
2022-08-16T14:29:24.325Z,100967.22
2022-08-16T14:31:59.266Z,100973.31
2022-08-16T14:34:29.800Z,100975.72
2022-08-16T14:36:57.369Z,100964.69
2022-08-16T14:39:26.047Z,100974.81
2022-08-16T14:41:53.678Z,100975.72
2022-08-16T14:44:23.280Z,100978.53
2022-08-16T14:46:49.936Z,100980.13
2022-08-16T14:49:19.181Z,100979.22
2022-08-16T14:51:46.406Z,100976.72
2022-08-16T14:54:13.207Z,100978.81
2022-08-16T14:56:43.326Z,100973.78
2022-08-16T14:59:21.101Z,100971.69
2022-08-16T15:01:59.728Z,100971.78
2022-08-16T15:04:39.864Z,100970.34
2022-08-16T15:07:12.464Z,100965.03
2022-08-16T15:10:00.375Z,100970.44
2022-08-16T15:12:31.138Z,100963.56
2022-08-16T15:15:01.890Z,100957.94
2022-08-16T15:17:34.089Z,100961.56
2022-08-16T15:20:08.653Z,100969.66
2022-08-16T15:22:42.975Z,100975.94
2022-08-16T15:25:17.778Z,100981.94
2022-08-16T15:30:47.883Z,100981.25
2022-08-16T15:36:04.277Z,100980.69
2022-08-16T15:39:01.960Z,100976.50
2022-08-16T15:41:43.631Z,100975.13
2022-08-16T15:44:14.265Z,100980.47
2022-08-16T15:46:56.355Z,100975.38
2022-08-16T15:49:37.296Z,100987.09
2022-08-16T16:00:14.689Z,100985.22
2022-08-16T16:03:11.618Z,100987.91
2022-08-16T16:05:43.472Z,100985.50
2022-08-16T16:16:02.902Z,100986.56
2022-08-16T16:18:31.767Z,100991.25
2022-08-16T16:21:02.082Z,100993.78
2022-08-16T16:23:35.363Z,100990.97
2022-08-16T16:31:40.557Z,100995.78
2022-08-16T16:34:10.006Z,100999.22
2022-08-16T16:36:39.951Z,100992.66
2022-08-16T16:42:06.530Z,100994.19
2022-08-16T16:52:56.990Z,101001.22
2022-08-16T16:55:25.445Z,101001.63
2022-08-16T16:58:17.992Z,100992.31
2022-08-16T17:00:58.830Z,100994.25
2022-08-16T17:03:26.504Z,100998.97
2022-08-16T17:06:00.251Z,100989.81
2022-08-16T17:08:29.660Z,100992.16
2022-08-16T17:21:42.001Z,100987.91
2022-08-16T17:53:41.515Z,101000.81
2022-08-16T17:56:09.097Z,101006.53
2022-08-16T17:58:36.378Z,101013.66
2022-08-16T18:01:03.516Z,101004.91
2022-08-16T18:11:57.093Z,101013.31
2022-08-16T18:14:51.180Z,101016.56
2022-08-16T18:25:48.980Z,101024.72
2022-08-16T18:28:16.777Z,101025.78
2022-08-16T18:36:19.971Z,101030.34
2022-08-16T18:56:15.682Z,101046.47
2022-08-16T18:58:42.263Z,101040.75
2022-08-16T19:01:08.768Z,101041.34
2022-08-16T19:03:35.382Z,101041.63
2022-08-16T19:06:07.584Z,101046.44
2022-08-16T19:08:38.537Z,101052.84
2022-08-16T19:11:10.327Z,101048.44
2022-08-16T19:13:40.300Z,101050.38
2022-08-16T19:16:07.577Z,101053.28
2022-08-16T19:18:36.530Z,101060.63
2022-08-16T19:21:03.710Z,101072.41
2022-08-16T19:23:35.726Z,101070.75
2022-08-16T19:26:07.325Z,101083.81
2022-08-16T19:28:51.092Z,101083.03
2022-08-16T19:31:31.846Z,101084.50
2022-08-16T19:33:59.204Z,101091.72
2022-08-16T19:36:36.929Z,101087.94
2022-08-16T19:39:08.809Z,101085.53
2022-08-16T19:41:53.791Z,101091.00
2022-08-16T19:52:23.787Z,101108.16
2022-08-16T19:54:53.017Z,101117.81
2022-08-16T19:57:20.346Z,101117.97
2022-08-16T19:59:47.410Z,101120.19
2022-08-16T20:02:25.597Z,101123.94
2022-08-16T20:05:05.323Z,101129.25
2022-08-16T20:07:32.287Z,101134.00
2022-08-16T20:09:58.819Z,101127.47
2022-08-16T20:12:25.648Z,101133.97
2022-08-16T20:14:52.527Z,101133.31
2022-08-16T20:17:19.552Z,101135.16
2022-08-16T20:19:46.356Z,101132.16
2022-08-16T20:22:42.052Z,101140.47
2022-08-16T20:25:12.048Z,101141.75
2022-08-16T20:27:39.989Z,101143.00
2022-08-16T20:30:08.993Z,101151.28
2022-08-16T20:32:36.351Z,101151.81
2022-08-16T20:35:07.526Z,101149.13
2022-08-16T20:37:37.195Z,101134.63
2022-08-16T20:40:34.617Z,101144.16
2022-08-16T20:43:12.745Z,101141.53
2022-08-16T20:45:41.138Z,101137.22
2022-08-16T20:48:07.768Z,101136.88
2022-08-16T20:50:34.692Z,101144.06
2022-08-16T20:53:01.837Z,101133.97
2022-08-16T20:55:29.421Z,101140.81
2022-08-16T20:57:56.153Z,101142.44
2022-08-16T21:00:22.648Z,101152.47
2022-08-16T21:02:53.415Z,101157.38
2022-08-16T21:05:31.026Z,101151.19
2022-08-16T21:07:57.956Z,101163.78
2022-08-16T21:10:24.641Z,101160.34
2022-08-16T21:12:56.180Z,101163.97
2022-08-16T21:15:25.665Z,101154.56
2022-08-16T21:17:52.308Z,101149.47
2022-08-16T21:20:20.540Z,101153.09
2022-08-16T21:22:59.081Z,101158.59
2022-08-16T21:25:25.649Z,101162.56
2022-08-16T21:28:41.101Z,101166.56
2022-08-16T21:30:39.331Z,101163.09
2022-08-16T21:33:15.764Z,101177.78
2022-08-16T21:35:44.481Z,101173.97
2022-08-16T21:38:28.728Z,101163.81
2022-08-16T21:40:57.143Z,101170.19
2022-08-16T21:43:27.647Z,101169.50
2022-08-16T21:45:55.681Z,101180.31
2022-08-16T21:48:35.227Z,101181.22
2022-08-16T21:51:07.712Z,101173.13
2022-08-16T21:53:35.273Z,101175.66
2022-08-16T21:56:03.601Z,101165.63
2022-08-16T21:58:31.164Z,101167.28
2022-08-16T22:00:58.265Z,101167.28
2022-08-16T22:03:26.441Z,101164.59
2022-08-16T22:06:12.281Z,101167.00
2022-08-16T22:08:48.855Z,101167.00
2022-08-16T22:11:19.351Z,101173.72
2022-08-16T22:13:57.368Z,101171.38
2022-08-16T22:16:30.392Z,101170.59
2022-08-16T22:18:56.878Z,101164.75
2022-08-16T22:21:23.317Z,101166.34
2022-08-16T22:23:57.133Z,101168.41
2022-08-16T22:26:31.117Z,101168.84
2022-08-16T22:29:04.373Z,101172.13
2022-08-16T22:31:31.404Z,101169.88
2022-08-16T22:33:57.908Z,101170.38
2022-08-16T22:36:28.382Z,101171.56
2022-08-16T22:38:59.823Z,101168.88
2022-08-16T22:41:31.852Z,101164.16
2022-08-16T22:43:59.754Z,101168.09
2022-08-16T22:46:26.507Z,101161.81
2022-08-16T22:48:52.945Z,101168.94
2022-08-16T22:51:22.085Z,101164.72
2022-08-16T22:53:48.891Z,101156.06
2022-08-16T22:56:17.712Z,101149.78
2022-08-16T22:58:45.402Z,101151.34
2022-08-16T23:01:12.866Z,101147.78
2022-08-16T23:03:40.907Z,101152.25
2022-08-16T23:06:08.650Z,101159.09
2022-08-16T23:08:40.593Z,101156.41
2022-08-16T23:11:21.271Z,101147.44
2022-08-16T23:13:54.507Z,101149.13
2022-08-16T23:16:33.471Z,101153.50
2022-08-16T23:19:19.124Z,101146.41
2022-08-16T23:21:48.254Z,101151.53
2022-08-16T23:24:17.519Z,101145.66
2022-08-16T23:26:48.512Z,101135.81
2022-08-16T23:29:24.335Z,101137.06
2022-08-16T23:31:55.499Z,101136.72
2022-08-16T23:34:22.244Z,101134.81
2022-08-16T23:36:48.658Z,101132.50
2022-08-16T23:39:15.087Z,101136.78
2022-08-16T23:41:41.643Z,101133.69
2022-08-16T23:44:56.368Z,101136.91
2022-08-16T23:46:55.452Z,101139.31
2022-08-16T23:49:58.037Z,101147.19
2022-08-16T23:52:09.781Z,101149.94
2022-08-16T23:54:36.767Z,101146.81
2022-08-16T23:57:03.920Z,101140.19
2022-08-16T23:59:30.422Z,101144.13
